Terminal Aerodrome Forecast
Issued by NWS Sterling, VA

Current Version | Previous Version | Graphics & Text | Print | Product List | Glossary On
Versions: 1 2 3 4 5 6 7 8 9 10 11 12 13 14 15 16 17 18 19 20 21 22 23 24
000
FTUS41 KLWX 160540
TAFIAD
TAF
KIAD 160540Z 1606/1712 02004KT P6SM SCT200
     FM161300 08005KT P6SM SCT200
     FM161700 15009G17KT P6SM SCT150
     FM162100 17008KT P6SM SCT050 BKN110
     FM170700 18005KT 6SM -SHRA OVC035
     FM171000 19005KT 6SM -SHRA OVC035=

USA.gov is the U.S. government's official web portal to all federal, state and local government web resources and services.